sensor_id;sensor_type;location;lat;lon;timestamp;temperature;humidity
18047;DHT22;9148;51.454;13.862;2023-05-27T00:00:08;11.10;78.40
18047;DHT22;9148;51.454;13.862;2023-05-27T00:02:35;11.10;79.40
18047;DHT22;9148;51.454;13.862;2023-05-27T00:05:01;11.10;80.00
18047;DHT22;9148;51.454;13.862;2023-05-27T00:07:27;11.00;80.70
18047;DHT22;9148;51.454;13.862;2023-05-27T00:09:53;11.00;81.20
18047;DHT22;9148;51.454;13.862;2023-05-27T00:12:19;10.90;82.10
18047;DHT22;9148;51.454;13.862;2023-05-27T00:14:45;10.90;82.90
18047;DHT22;9148;51.454;13.862;2023-05-27T00:17:11;10.80;83.60
18047;DHT22;9148;51.454;13.862;2023-05-27T00:19:39;10.80;84.20
18047;DHT22;9148;51.454;13.862;2023-05-27T00:22:05;10.70;84.90
18047;DHT22;9148;51.454;13.862;2023-05-27T00:24:33;10.70;85.80
18047;DHT22;9148;51.454;13.862;2023-05-27T00:27:00;10.60;86.50
18047;DHT22;9148;51.454;13.862;2023-05-27T00:29:28;10.60;87.20
18047;DHT22;9148;51.454;13.862;2023-05-27T00:31:53;10.50;87.70
18047;DHT22;9148;51.454;13.862;2023-05-27T00:34:19;10.40;88.50
18047;DHT22;9148;51.454;13.862;2023-05-27T00:36:45;10.30;89.20
18047;DHT22;9148;51.454;13.862;2023-05-27T00:39:20;10.20;90.10
18047;DHT22;9148;51.454;13.862;2023-05-27T00:41:48;10.10;90.20
18047;DHT22;9148;51.454;13.862;2023-05-27T00:44:16;10.00;90.50
18047;DHT22;9148;51.454;13.862;2023-05-27T00:46:43;9.90;90.90
18047;DHT22;9148;51.454;13.862;2023-05-27T00:49:12;9.90;91.30
18047;DHT22;9148;51.454;13.862;2023-05-27T00:51:38;9.80;91.80
18047;DHT22;9148;51.454;13.862;2023-05-27T00:54:04;9.70;92.50
18047;DHT22;9148;51.454;13.862;2023-05-27T00:56:33;9.60;92.50
18047;DHT22;9148;51.454;13.862;2023-05-27T00:58:59;9.60;93.00
18047;DHT22;9148;51.454;13.862;2023-05-27T01:01:25;9.50;93.30
18047;DHT22;9148;51.454;13.862;2023-05-27T01:03:51;9.50;93.90
18047;DHT22;9148;51.454;13.862;2023-05-27T01:06:53;9.40;94.30
18047;DHT22;9148;51.454;13.862;2023-05-27T01:09:44;9.40;94.70
18047;DHT22;9148;51.454;13.862;2023-05-27T01:12:49;9.20;95.10
18047;DHT22;9148;51.454;13.862;2023-05-27T01:15:18;9.20;95.40
18047;DHT22;9148;51.454;13.862;2023-05-27T01:17:46;9.20;95.70
18047;DHT22;9148;51.454;13.862;2023-05-27T01:20:14;9.10;96.00
18047;DHT22;9148;51.454;13.862;2023-05-27T01:22:42;9.00;96.50
18047;DHT22;9148;51.454;13.862;2023-05-27T01:25:09;9.00;96.40
18047;DHT22;9148;51.454;13.862;2023-05-27T01:27:35;8.90;96.60
18047;DHT22;9148;51.454;13.862;2023-05-27T01:30:02;8.90;97.00
18047;DHT22;9148;51.454;13.862;2023-05-27T01:37:54;8.60;98.40
18047;DHT22;9148;51.454;13.862;2023-05-27T01:40:22;8.50;99.00
18047;DHT22;9148;51.454;13.862;2023-05-27T01:42:48;8.30;99.10
18047;DHT22;9148;51.454;13.862;2023-05-27T01:45:14;8.30;99.40
18047;DHT22;9148;51.454;13.862;2023-05-27T01:47:43;8.60;99.90
18047;DHT22;9148;51.454;13.862;2023-05-27T01:50:10;8.30;99.90
18047;DHT22;9148;51.454;13.862;2023-05-27T01:52:35;8.10;99.90
18047;DHT22;9148;51.454;13.862;2023-05-27T01:55:01;8.00;99.90
18047;DHT22;9148;51.454;13.862;2023-05-27T01:57:29;8.00;99.90
18047;DHT22;9148;51.454;13.862;2023-05-27T01:59:55;7.90;99.90
18047;DHT22;9148;51.454;13.862;2023-05-27T02:02:21;7.80;99.90
18047;DHT22;9148;51.454;13.862;2023-05-27T02:04:46;7.70;99.90
18047;DHT22;9148;51.454;13.862;2023-05-27T02:07:12;7.70;99.90
18047;DHT22;9148;51.454;13.862;2023-05-27T02:09:38;7.60;99.90
18047;DHT22;9148;51.454;13.862;2023-05-27T02:12:03;7.60;99.90
18047;DHT22;9148;51.454;13.862;2023-05-27T02:14:30;7.60;99.90
18047;DHT22;9148;51.454;13.862;2023-05-27T02:16:56;7.50;99.90
18047;DHT22;9148;51.454;13.862;2023-05-27T02:19:23;7.50;99.90
18047;DHT22;9148;51.454;13.862;2023-05-27T02:21:50;7.40;99.90
18047;DHT22;9148;51.454;13.862;2023-05-27T02:24:21;7.50;99.90
18047;DHT22;9148;51.454;13.862;2023-05-27T02:26:47;7.40;99.90
18047;DHT22;9148;51.454;13.862;2023-05-27T02:29:13;7.40;99.90
18047;DHT22;9148;51.454;13.862;2023-05-27T02:31:38;7.60;99.90
18047;DHT22;9148;51.454;13.862;2023-05-27T02:34:04;7.50;99.90
18047;DHT22;9148;51.454;13.862;2023-05-27T02:36:30;7.80;99.90
18047;DHT22;9148;51.454;13.862;2023-05-27T02:38:55;7.70;99.90
18047;DHT22;9148;51.454;13.862;2023-05-27T02:41:21;7.30;99.90
18047;DHT22;9148;51.454;13.862;2023-05-27T02:43:47;7.20;99.90
18047;DHT22;9148;51.454;13.862;2023-05-27T02:46:12;7.40;99.90
18047;DHT22;9148;51.454;13.862;2023-05-27T02:48:38;7.20;99.90
18047;DHT22;9148;51.454;13.862;2023-05-27T02:51:03;7.10;99.90
18047;DHT22;9148;51.454;13.862;2023-05-27T02:53:29;7.10;99.90
18047;DHT22;9148;51.454;13.862;2023-05-27T02:55:55;7.30;99.90
18047;DHT22;9148;51.454;13.862;2023-05-27T02:58:20;7.00;99.90
18047;DHT22;9148;51.454;13.862;2023-05-27T03:00:46;6.80;99.90
18047;DHT22;9148;51.454;13.862;2023-05-27T03:03:12;7.00;99.90
18047;DHT22;9148;51.454;13.862;2023-05-27T03:05:37;6.80;99.90
18047;DHT22;9148;51.454;13.862;2023-05-27T03:08:03;6.80;99.90
18047;DHT22;9148;51.454;13.862;2023-05-27T03:10:32;6.80;99.90
18047;DHT22;9148;51.454;13.862;2023-05-27T03:12:58;6.80;99.90
18047;DHT22;9148;51.454;13.862;2023-05-27T03:15:23;7.00;99.90
18047;DHT22;9148;51.454;13.862;2023-05-27T03:17:49;6.80;99.90
18047;DHT22;9148;51.454;13.862;2023-05-27T03:20:15;6.80;99.90
18047;DHT22;9148;51.454;13.862;2023-05-27T03:22:42;6.80;99.90
18047;DHT22;9148;51.454;13.862;2023-05-27T03:25:08;6.80;99.90
18047;DHT22;9148;51.454;13.862;2023-05-27T03:27:34;6.80;99.90
18047;DHT22;9148;51.454;13.862;2023-05-27T03:30:00;7.00;99.90
18047;DHT22;9148;51.454;13.862;2023-05-27T03:32:25;6.80;99.90
18047;DHT22;9148;51.454;13.862;2023-05-27T03:34:51;6.80;99.90
18047;DHT22;9148;51.454;13.862;2023-05-27T03:37:17;6.80;99.90
18047;DHT22;9148;51.454;13.862;2023-05-27T03:39:42;7.10;99.90
18047;DHT22;9148;51.454;13.862;2023-05-27T03:42:09;6.80;99.90
18047;DHT22;9148;51.454;13.862;2023-05-27T03:44:35;7.30;99.90
18047;DHT22;9148;51.454;13.862;2023-05-27T03:47:04;7.10;99.90
18047;DHT22;9148;51.454;13.862;2023-05-27T03:49:30;6.80;99.90
18047;DHT22;9148;51.454;13.862;2023-05-27T03:51:56;6.80;99.90
18047;DHT22;9148;51.454;13.862;2023-05-27T03:54:22;6.80;99.90
18047;DHT22;9148;51.454;13.862;2023-05-27T03:56:47;7.40;99.90
18047;DHT22;9148;51.454;13.862;2023-05-27T03:59:13;6.90;99.90
18047;DHT22;9148;51.454;13.862;2023-05-27T04:01:39;7.00;99.90
18047;DHT22;9148;51.454;13.862;2023-05-27T04:04:06;7.00;99.90
18047;DHT22;9148;51.454;13.862;2023-05-27T04:06:32;7.10;99.90
18047;DHT22;9148;51.454;13.862;2023-05-27T04:08:58;7.40;99.90
18047;DHT22;9148;51.454;13.862;2023-05-27T04:11:26;7.20;99.90
18047;DHT22;9148;51.454;13.862;2023-05-27T04:13:52;7.20;99.90
18047;DHT22;9148;51.454;13.862;2023-05-27T04:16:18;7.50;99.90
18047;DHT22;9148;51.454;13.862;2023-05-27T04:18:44;7.40;99.90
18047;DHT22;9148;51.454;13.862;2023-05-27T04:21:15;7.90;99.90
18047;DHT22;9148;51.454;13.862;2023-05-27T04:23:41;7.60;99.90
18047;DHT22;9148;51.454;13.862;2023-05-27T04:26:06;7.80;99.90
18047;DHT22;9148;51.454;13.862;2023-05-27T04:28:32;7.90;99.90
18047;DHT22;9148;51.454;13.862;2023-05-27T04:30:59;8.30;99.90
18047;DHT22;9148;51.454;13.862;2023-05-27T04:33:25;8.00;99.90
18047;DHT22;9148;51.454;13.862;2023-05-27T04:35:51;8.20;99.90
18047;DHT22;9148;51.454;13.862;2023-05-27T04:38:19;8.30;99.90
18047;DHT22;9148;51.454;13.862;2023-05-27T04:40:46;8.40;99.90
18047;DHT22;9148;51.454;13.862;2023-05-27T04:43:21;8.60;99.90
18047;DHT22;9148;51.454;13.862;2023-05-27T04:45:48;8.70;99.90
18047;DHT22;9148;51.454;13.862;2023-05-27T04:48:15;8.90;99.90
18047;DHT22;9148;51.454;13.862;2023-05-27T04:50:41;9.00;99.90
18047;DHT22;9148;51.454;13.862;2023-05-27T04:53:07;9.20;99.90
18047;DHT22;9148;51.454;13.862;2023-05-27T04:55:34;9.30;99.90
18047;DHT22;9148;51.454;13.862;2023-05-27T04:58:01;9.50;99.90
18047;DHT22;9148;51.454;13.862;2023-05-27T05:00:29;9.60;99.90
18047;DHT22;9148;51.454;13.862;2023-05-27T05:03:05;9.80;99.90
18047;DHT22;9148;51.454;13.862;2023-05-27T05:05:32;9.90;99.90
18047;DHT22;9148;51.454;13.862;2023-05-27T05:07:58;10.10;99.90
18047;DHT22;9148;51.454;13.862;2023-05-27T05:10:24;10.30;99.90
18047;DHT22;9148;51.454;13.862;2023-05-27T05:12:50;10.50;99.90
18047;DHT22;9148;51.454;13.862;2023-05-27T05:15:15;10.70;99.90
18047;DHT22;9148;51.454;13.862;2023-05-27T05:17:41;10.90;99.90
18047;DHT22;9148;51.454;13.862;2023-05-27T05:20:07;11.10;99.90
18047;DHT22;9148;51.454;13.862;2023-05-27T05:22:34;11.30;99.90
18047;DHT22;9148;51.454;13.862;2023-05-27T05:25:00;11.50;99.90
18047;DHT22;9148;51.454;13.862;2023-05-27T05:27:27;11.70;99.90
18047;DHT22;9148;51.454;13.862;2023-05-27T05:29:53;11.90;99.90
18047;DHT22;9148;51.454;13.862;2023-05-27T05:32:19;12.10;99.90
18047;DHT22;9148;51.454;13.862;2023-05-27T05:34:45;12.30;99.90
18047;DHT22;9148;51.454;13.862;2023-05-27T05:37:11;12.50;99.90
18047;DHT22;9148;51.454;13.862;2023-05-27T05:39:37;12.70;99.90
18047;DHT22;9148;51.454;13.862;2023-05-27T05:42:03;12.90;99.90
18047;DHT22;9148;51.454;13.862;2023-05-27T05:44:30;13.10;99.90
18047;DHT22;9148;51.454;13.862;2023-05-27T05:46:56;13.30;99.90
18047;DHT22;9148;51.454;13.862;2023-05-27T05:49:21;13.50;99.90
18047;DHT22;9148;51.454;13.862;2023-05-27T05:51:47;13.70;99.90
18047;DHT22;9148;51.454;13.862;2023-05-27T05:54:13;13.90;99.90
18047;DHT22;9148;51.454;13.862;2023-05-27T05:56:38;14.10;99.90
18047;DHT22;9148;51.454;13.862;2023-05-27T05:59:05;14.40;99.90
18047;DHT22;9148;51.454;13.862;2023-05-27T06:01:30;14.50;99.60
18047;DHT22;9148;51.454;13.862;2023-05-27T06:03:56;14.80;99.10
18047;DHT22;9148;51.454;13.862;2023-05-27T06:06:23;15.00;98.50
18047;DHT22;9148;51.454;13.862;2023-05-27T06:08:49;15.20;97.90
18047;DHT22;9148;51.454;13.862;2023-05-27T06:11:14;15.40;97.30
18047;DHT22;9148;51.454;13.862;2023-05-27T06:13:40;15.60;95.90
18047;DHT22;9148;51.454;13.862;2023-05-27T06:16:06;15.80;94.90
18047;DHT22;9148;51.454;13.862;2023-05-27T06:18:32;15.90;94.20
18047;DHT22;9148;51.454;13.862;2023-05-27T06:20:58;16.00;93.30
18047;DHT22;9148;51.454;13.862;2023-05-27T06:23:23;16.20;92.50
18047;DHT22;9148;51.454;13.862;2023-05-27T06:25:49;16.30;91.90
18047;DHT22;9148;51.454;13.862;2023-05-27T06:28:15;16.40;90.90
18047;DHT22;9148;51.454;13.862;2023-05-27T06:30:40;16.40;90.10
18047;DHT22;9148;51.454;13.862;2023-05-27T06:33:08;16.50;89.50
18047;DHT22;9148;51.454;13.862;2023-05-27T06:35:33;16.60;89.50
18047;DHT22;9148;51.454;13.862;2023-05-27T06:38:00;16.70;85.10
18047;DHT22;9148;51.454;13.862;2023-05-27T06:40:25;16.80;82.20
18047;DHT22;9148;51.454;13.862;2023-05-27T06:42:51;16.80;81.50
18047;DHT22;9148;51.454;13.862;2023-05-27T06:45:17;16.80;81.50
18047;DHT22;9148;51.454;13.862;2023-05-27T06:47:42;16.90;82.00
18047;DHT22;9148;51.454;13.862;2023-05-27T06:50:08;17.10;80.50
18047;DHT22;9148;51.454;13.862;2023-05-27T06:52:34;17.20;78.00
18047;DHT22;9148;51.454;13.862;2023-05-27T06:55:00;17.30;78.40
18047;DHT22;9148;51.454;13.862;2023-05-27T06:57:26;17.40;78.40
18047;DHT22;9148;51.454;13.862;2023-05-27T06:59:52;17.60;77.70
18047;DHT22;9148;51.454;13.862;2023-05-27T07:02:17;17.80;75.90
18047;DHT22;9148;51.454;13.862;2023-05-27T07:04:43;17.90;73.00
18047;DHT22;9148;51.454;13.862;2023-05-27T07:07:09;18.30;71.00
18047;DHT22;9148;51.454;13.862;2023-05-27T07:09:35;17.90;70.20
18047;DHT22;9148;51.454;13.862;2023-05-27T07:12:01;18.00;69.70
18047;DHT22;9148;51.454;13.862;2023-05-27T07:14:27;18.00;69.70
18047;DHT22;9148;51.454;13.862;2023-05-27T07:16:53;18.10;69.50
18047;DHT22;9148;51.454;13.862;2023-05-27T07:19:19;18.20;69.00
18047;DHT22;9148;51.454;13.862;2023-05-27T07:21:44;18.40;68.50
18047;DHT22;9148;51.454;13.862;2023-05-27T07:24:10;18.60;67.70
18047;DHT22;9148;51.454;13.862;2023-05-27T07:26:36;18.70;66.10
18047;DHT22;9148;51.454;13.862;2023-05-27T07:29:02;18.80;63.40
18047;DHT22;9148;51.454;13.862;2023-05-27T07:31:28;18.70;63.50
18047;DHT22;9148;51.454;13.862;2023-05-27T07:33:54;18.80;64.70
18047;DHT22;9148;51.454;13.862;2023-05-27T07:36:20;18.90;64.40
18047;DHT22;9148;51.454;13.862;2023-05-27T07:38:49;19.10;63.30
18047;DHT22;9148;51.454;13.862;2023-05-27T07:41:15;19.30;60.60
18047;DHT22;9148;51.454;13.862;2023-05-27T07:43:40;19.30;61.00
18047;DHT22;9148;51.454;13.862;2023-05-27T07:46:06;19.30;60.10
18047;DHT22;9148;51.454;13.862;2023-05-27T07:48:32;19.40;60.20
18047;DHT22;9148;51.454;13.862;2023-05-27T07:50:57;19.50;59.10
18047;DHT22;9148;51.454;13.862;2023-05-27T07:53:23;19.50;59.10
18047;DHT22;9148;51.454;13.862;2023-05-27T07:55:49;19.60;59.20
18047;DHT22;9148;51.454;13.862;2023-05-27T07:58:15;19.70;58.90
18047;DHT22;9148;51.454;13.862;2023-05-27T08:00:40;19.80;58.20
18047;DHT22;9148;51.454;13.862;2023-05-27T08:03:06;20.00;55.80
18047;DHT22;9148;51.454;13.862;2023-05-27T08:05:32;20.00;55.70
18047;DHT22;9148;51.454;13.862;2023-05-27T08:07:58;20.00;55.70
18047;DHT22;9148;51.454;13.862;2023-05-27T08:10:25;20.00;55.40
18047;DHT22;9148;51.454;13.862;2023-05-27T08:12:54;20.10;55.50
18047;DHT22;9148;51.454;13.862;2023-05-27T08:15:19;20.10;55.60
18047;DHT22;9148;51.454;13.862;2023-05-27T08:17:45;20.20;54.60
18047;DHT22;9148;51.454;13.862;2023-05-27T08:20:11;20.20;53.60
18047;DHT22;9148;51.454;13.862;2023-05-27T08:22:37;20.00;54.30
18047;DHT22;9148;51.454;13.862;2023-05-27T08:25:03;19.90;54.90
18047;DHT22;9148;51.454;13.862;2023-05-27T08:30:14;20.20;55.80
18047;DHT22;9148;51.454;13.862;2023-05-27T08:32:40;20.50;55.60
18047;DHT22;9148;51.454;13.862;2023-05-27T08:35:07;20.80;55.00
18047;DHT22;9148;51.454;13.862;2023-05-27T08:37:33;21.10;54.60
18047;DHT22;9148;51.454;13.862;2023-05-27T08:39:59;21.40;53.50
18047;DHT22;9148;51.454;13.862;2023-05-27T08:42:25;21.60;53.30
18047;DHT22;9148;51.454;13.862;2023-05-27T08:44:51;21.80;53.10
18047;DHT22;9148;51.454;13.862;2023-05-27T08:47:17;22.10;52.80
18047;DHT22;9148;51.454;13.862;2023-05-27T08:49:43;22.30;51.50
18047;DHT22;9148;51.454;13.862;2023-05-27T08:52:13;22.50;50.70
18047;DHT22;9148;51.454;13.862;2023-05-27T08:54:45;22.60;50.30
18047;DHT22;9148;51.454;13.862;2023-05-27T08:57:12;22.60;49.10
18047;DHT22;9148;51.454;13.862;2023-05-27T08:59:41;22.50;49.70
18047;DHT22;9148;51.454;13.862;2023-05-27T09:02:11;22.60;50.10
18047;DHT22;9148;51.454;13.862;2023-05-27T09:04:38;22.80;48.90
18047;DHT22;9148;51.454;13.862;2023-05-27T09:07:05;22.80;47.70
18047;DHT22;9148;51.454;13.862;2023-05-27T09:09:31;22.70;47.30
18047;DHT22;9148;51.454;13.862;2023-05-27T09:12:04;22.60;48.30
18047;DHT22;9148;51.454;13.862;2023-05-27T09:14:31;22.60;47.70
18047;DHT22;9148;51.454;13.862;2023-05-27T09:17:04;22.50;48.10
18047;DHT22;9148;51.454;13.862;2023-05-27T09:19:30;22.60;47.90
18047;DHT22;9148;51.454;13.862;2023-05-27T09:21:56;22.60;46.40
18047;DHT22;9148;51.454;13.862;2023-05-27T09:24:25;22.40;46.70
18047;DHT22;9148;51.454;13.862;2023-05-27T09:26:52;22.40;47.20
18047;DHT22;9148;51.454;13.862;2023-05-27T09:29:19;22.50;47.20
18047;DHT22;9148;51.454;13.862;2023-05-27T09:31:48;22.80;47.10
18047;DHT22;9148;51.454;13.862;2023-05-27T09:34:16;23.00;46.60
18047;DHT22;9148;51.454;13.862;2023-05-27T09:36:47;23.20;46.60
18047;DHT22;9148;51.454;13.862;2023-05-27T09:39:14;23.50;45.30
18047;DHT22;9148;51.454;13.862;2023-05-27T09:41:43;23.50;45.00
18047;DHT22;9148;51.454;13.862;2023-05-27T09:44:15;23.60;44.70
18047;DHT22;9148;51.454;13.862;2023-05-27T09:46:44;23.60;44.60
18047;DHT22;9148;51.454;13.862;2023-05-27T09:49:13;23.60;44.90
18047;DHT22;9148;51.454;13.862;2023-05-27T09:51:41;23.80;44.60
18047;DHT22;9148;51.454;13.862;2023-05-27T09:54:07;24.00;44.00
18047;DHT22;9148;51.454;13.862;2023-05-27T09:56:35;24.20;43.30
18047;DHT22;9148;51.454;13.862;2023-05-27T09:59:01;24.40;42.00
18047;DHT22;9148;51.454;13.862;2023-05-27T10:01:28;24.50;42.20
18047;DHT22;9148;51.454;13.862;2023-05-27T10:03:57;24.80;41.40
18047;DHT22;9148;51.454;13.862;2023-05-27T10:06:24;24.80;41.50
18047;DHT22;9148;51.454;13.862;2023-05-27T10:08:51;24.80;40.90
18047;DHT22;9148;51.454;13.862;2023-05-27T10:11:24;24.60;41.40
18047;DHT22;9148;51.454;13.862;2023-05-27T10:13:51;24.50;41.50
18047;DHT22;9148;51.454;13.862;2023-05-27T10:16:27;24.60;41.30
18047;DHT22;9148;51.454;13.862;2023-05-27T10:18:54;24.90;41.10
18047;DHT22;9148;51.454;13.862;2023-05-27T10:21:22;25.10;40.90
18047;DHT22;9148;51.454;13.862;2023-05-27T10:23:56;25.40;40.40
18047;DHT22;9148;51.454;13.862;2023-05-27T10:26:33;25.70;39.70
18047;DHT22;9148;51.454;13.862;2023-05-27T10:29:12;26.00;39.30
18047;DHT22;9148;51.454;13.862;2023-05-27T10:31:49;25.70;39.20
18047;DHT22;9148;51.454;13.862;2023-05-27T10:34:16;26.40;36.60
18047;DHT22;9148;51.454;13.862;2023-05-27T10:36:44;26.20;36.90
18047;DHT22;9148;51.454;13.862;2023-05-27T10:39:17;26.00;37.20
18047;DHT22;9148;51.454;13.862;2023-05-27T10:41:52;25.70;36.70
18047;DHT22;9148;51.454;13.862;2023-05-27T10:47:11;25.10;37.60
18047;DHT22;9148;51.454;13.862;2023-05-27T10:49:45;24.90;39.10
18047;DHT22;9148;51.454;13.862;2023-05-27T10:52:13;24.90;38.30
18047;DHT22;9148;51.454;13.862;2023-05-27T10:54:42;24.80;38.30
18047;DHT22;9148;51.454;13.862;2023-05-27T10:57:09;24.80;38.60
18047;DHT22;9148;51.454;13.862;2023-05-27T10:59:49;24.90;37.90
18047;DHT22;9148;51.454;13.862;2023-05-27T11:02:16;25.20;38.40
18047;DHT22;9148;51.454;13.862;2023-05-27T11:04:43;25.40;37.80
18047;DHT22;9148;51.454;13.862;2023-05-27T11:07:08;25.50;37.60
18047;DHT22;9148;51.454;13.862;2023-05-27T11:09:48;25.60;38.20
18047;DHT22;9148;51.454;13.862;2023-05-27T11:12:17;25.90;37.80
18047;DHT22;9148;51.454;13.862;2023-05-27T11:14:46;26.10;38.00
18047;DHT22;9148;51.454;13.862;2023-05-27T11:17:14;26.50;37.90
18047;DHT22;9148;51.454;13.862;2023-05-27T11:19:40;26.90;36.90
18047;DHT22;9148;51.454;13.862;2023-05-27T11:22:08;27.10;36.20
18047;DHT22;9148;51.454;13.862;2023-05-27T11:24:35;27.30;35.00
18047;DHT22;9148;51.454;13.862;2023-05-27T11:27:08;27.20;34.40
18047;DHT22;9148;51.454;13.862;2023-05-27T11:29:39;27.10;34.90
18047;DHT22;9148;51.454;13.862;2023-05-27T11:32:06;27.10;33.80
18047;DHT22;9148;51.454;13.862;2023-05-27T11:34:36;26.80;34.30
18047;DHT22;9148;51.454;13.862;2023-05-27T11:37:05;26.50;35.10
18047;DHT22;9148;51.454;13.862;2023-05-27T11:39:31;26.50;35.50
18047;DHT22;9148;51.454;13.862;2023-05-27T11:41:57;26.70;34.90
18047;DHT22;9148;51.454;13.862;2023-05-27T11:44:25;26.70;34.60
18047;DHT22;9148;51.454;13.862;2023-05-27T11:46:52;26.60;33.90
18047;DHT22;9148;51.454;13.862;2023-05-27T11:49:24;26.40;34.40
18047;DHT22;9148;51.454;13.862;2023-05-27T11:51:50;26.50;35.20
18047;DHT22;9148;51.454;13.862;2023-05-27T11:54:27;26.80;35.50
18047;DHT22;9148;51.454;13.862;2023-05-27T11:56:56;27.30;35.20
18047;DHT22;9148;51.454;13.862;2023-05-27T11:59:31;27.70;34.30
18047;DHT22;9148;51.454;13.862;2023-05-27T12:01:57;27.80;32.70
18047;DHT22;9148;51.454;13.862;2023-05-27T12:04:22;27.70;33.20
18047;DHT22;9148;51.454;13.862;2023-05-27T12:06:48;27.60;33.10
18047;DHT22;9148;51.454;13.862;2023-05-27T12:09:14;27.60;33.00
18047;DHT22;9148;51.454;13.862;2023-05-27T12:11:40;27.40;32.60
18047;DHT22;9148;51.454;13.862;2023-05-27T12:14:06;27.10;33.10
18047;DHT22;9148;51.454;13.862;2023-05-27T12:16:32;26.90;33.10
18047;DHT22;9148;51.454;13.862;2023-05-27T12:18:58;26.80;33.80
18047;DHT22;9148;51.454;13.862;2023-05-27T12:21:24;27.00;34.30
18047;DHT22;9148;51.454;13.862;2023-05-27T12:23:50;27.20;33.70
18047;DHT22;9148;51.454;13.862;2023-05-27T12:26:16;27.30;33.30
18047;DHT22;9148;51.454;13.862;2023-05-27T12:28:42;27.40;33.80
18047;DHT22;9148;51.454;13.862;2023-05-27T12:31:08;27.60;33.60
18047;DHT22;9148;51.454;13.862;2023-05-27T12:33:34;27.70;32.70
18047;DHT22;9148;51.454;13.862;2023-05-27T12:36:00;27.70;33.10
18047;DHT22;9148;51.454;13.862;2023-05-27T12:38:26;27.70;32.80
18047;DHT22;9148;51.454;13.862;2023-05-27T12:40:52;27.60;32.30
18047;DHT22;9148;51.454;13.862;2023-05-27T12:43:18;27.30;32.90
18047;DHT22;9148;51.454;13.862;2023-05-27T12:45:45;27.30;33.30
18047;DHT22;9148;51.454;13.862;2023-05-27T12:48:12;27.40;33.10
18047;DHT22;9148;51.454;13.862;2023-05-27T12:50:38;27.40;31.90
18047;DHT22;9148;51.454;13.862;2023-05-27T12:53:03;27.30;32.70
18047;DHT22;9148;51.454;13.862;2023-05-27T12:55:29;27.40;32.10
18047;DHT22;9148;51.454;13.862;2023-05-27T12:57:55;27.50;31.80
18047;DHT22;9148;51.454;13.862;2023-05-27T13:00:21;27.40;31.10
18047;DHT22;9148;51.454;13.862;2023-05-27T13:02:47;27.30;31.70
18047;DHT22;9148;51.454;13.862;2023-05-27T13:05:14;27.20;32.00
18047;DHT22;9148;51.454;13.862;2023-05-27T13:07:40;27.00;31.80
18047;DHT22;9148;51.454;13.862;2023-05-27T13:10:12;27.00;32.70
18047;DHT22;9148;51.454;13.862;2023-05-27T13:12:43;26.90;30.90
18047;DHT22;9148;51.454;13.862;2023-05-27T13:15:09;25.90;30.90
18047;DHT22;9148;51.454;13.862;2023-05-27T13:17:36;26.40;31.80
18047;DHT22;9148;51.454;13.862;2023-05-27T13:20:02;26.20;32.10
18047;DHT22;9148;51.454;13.862;2023-05-27T13:22:28;26.00;31.90
18047;DHT22;9148;51.454;13.862;2023-05-27T13:24:54;25.80;32.90
18047;DHT22;9148;51.454;13.862;2023-05-27T13:27:20;25.60;32.90
18047;DHT22;9148;51.454;13.862;2023-05-27T13:29:46;25.40;33.70
18047;DHT22;9148;51.454;13.862;2023-05-27T13:32:12;25.40;33.60
18047;DHT22;9148;51.454;13.862;2023-05-27T13:34:38;25.50;33.80
18047;DHT22;9148;51.454;13.862;2023-05-27T13:37:04;25.60;33.30
18047;DHT22;9148;51.454;13.862;2023-05-27T13:39:30;25.60;33.80
18047;DHT22;9148;51.454;13.862;2023-05-27T13:41:56;25.70;33.60
18047;DHT22;9148;51.454;13.862;2023-05-27T13:44:22;25.70;33.60
18047;DHT22;9148;51.454;13.862;2023-05-27T13:46:48;25.80;33.50
18047;DHT22;9148;51.454;13.862;2023-05-27T13:49:13;25.70;33.40
18047;DHT22;9148;51.454;13.862;2023-05-27T13:51:43;25.50;33.30
18047;DHT22;9148;51.454;13.862;2023-05-27T13:54:10;25.40;33.40
18047;DHT22;9148;51.454;13.862;2023-05-27T13:56:36;25.30;33.60
18047;DHT22;9148;51.454;13.862;2023-05-27T13:59:01;25.20;33.50
18047;DHT22;9148;51.454;13.862;2023-05-27T14:01:29;25.10;33.30
18047;DHT22;9148;51.454;13.862;2023-05-27T14:03:55;25.00;33.90
18047;DHT22;9148;51.454;13.862;2023-05-27T14:06:21;25.00;34.10
18047;DHT22;9148;51.454;13.862;2023-05-27T14:08:46;25.20;34.00
18047;DHT22;9148;51.454;13.862;2023-05-27T14:11:12;25.40;34.20
18047;DHT22;9148;51.454;13.862;2023-05-27T14:13:38;25.70;34.50
18047;DHT22;9148;51.454;13.862;2023-05-27T14:16:04;25.90;34.20
18047;DHT22;9148;51.454;13.862;2023-05-27T14:18:30;26.20;33.60
18047;DHT22;9148;51.454;13.862;2023-05-27T14:20:56;26.30;33.70
18047;DHT22;9148;51.454;13.862;2023-05-27T14:23:21;26.50;33.90
18047;DHT22;9148;51.454;13.862;2023-05-27T14:25:47;26.50;32.10
18047;DHT22;9148;51.454;13.862;2023-05-27T14:28:15;26.40;32.50
18047;DHT22;9148;51.454;13.862;2023-05-27T14:30:41;26.20;32.90
18047;DHT22;9148;51.454;13.862;2023-05-27T14:33:07;26.10;32.60
18047;DHT22;9148;51.454;13.862;2023-05-27T14:35:34;26.00;32.50
18047;DHT22;9148;51.454;13.862;2023-05-27T14:38:01;25.90;33.00
18047;DHT22;9148;51.454;13.862;2023-05-27T14:40:27;25.70;32.70
18047;DHT22;9148;51.454;13.862;2023-05-27T14:42:53;25.50;33.00
18047;DHT22;9148;51.454;13.862;2023-05-27T14:45:19;25.40;33.80
18047;DHT22;9148;51.454;13.862;2023-05-27T14:47:47;25.40;33.90
18047;DHT22;9148;51.454;13.862;2023-05-27T14:50:17;25.50;34.20
18047;DHT22;9148;51.454;13.862;2023-05-27T14:52:45;25.60;32.90
18047;DHT22;9148;51.454;13.862;2023-05-27T14:55:10;25.40;33.00
18047;DHT22;9148;51.454;13.862;2023-05-27T14:57:36;25.30;33.50
18047;DHT22;9148;51.454;13.862;2023-05-27T15:00:03;25.20;33.60
18047;DHT22;9148;51.454;13.862;2023-05-27T15:02:39;25.10;33.90
18047;DHT22;9148;51.454;13.862;2023-05-27T15:05:05;25.10;33.70
18047;DHT22;9148;51.454;13.862;2023-05-27T15:07:32;25.10;33.60
18047;DHT22;9148;51.454;13.862;2023-05-27T15:09:59;25.10;33.40
18047;DHT22;9148;51.454;13.862;2023-05-27T15:12:25;25.10;33.90
18047;DHT22;9148;51.454;13.862;2023-05-27T15:14:53;25.10;34.10
18047;DHT22;9148;51.454;13.862;2023-05-27T15:17:18;25.20;33.90
18047;DHT22;9148;51.454;13.862;2023-05-27T15:19:46;25.20;34.30
18047;DHT22;9148;51.454;13.862;2023-05-27T15:22:12;25.30;34.10
18047;DHT22;9148;51.454;13.862;2023-05-27T15:24:37;25.30;33.90
18047;DHT22;9148;51.454;13.862;2023-05-27T15:27:03;25.30;34.90
18047;DHT22;9148;51.454;13.862;2023-05-27T15:29:29;25.20;33.60
18047;DHT22;9148;51.454;13.862;2023-05-27T15:31:55;25.00;33.50
18047;DHT22;9148;51.454;13.862;2023-05-27T15:34:20;24.70;34.10
18047;DHT22;9148;51.454;13.862;2023-05-27T15:36:46;24.50;34.60
18047;DHT22;9148;51.454;13.862;2023-05-27T15:39:12;24.40;35.00
18047;DHT22;9148;51.454;13.862;2023-05-27T15:41:37;24.30;35.10
18047;DHT22;9148;51.454;13.862;2023-05-27T15:44:04;24.30;35.30